Hana — 2BCV4 — position and weather

sailwx.info

Track history (hours):
 
Tides and Currents Weather Stations Pressure Air Temp Water Temp Dewpoint Dewpoint Depression Visibility Wind Speed Wind Dir Waves Ship Positions

Hana

Last reported at 2016-Jul-22 19:10 UTC. Time now 2016-Jul-29 02:08 UTC.
Position N 43°16' E 006°38'.

Length 43 m; draft 2.7 m.

Type: Pleasure craft. MMSI: 235065022.

Date/timePositionNaut miles runAvg speedWind from/ knotsBaromVisibWave heightAir tempDewpointWater temp
2016-Jul-22 19:10N 43°16' E 006°38'0 0.0
2016-Jul-22 18:31N 43°16' E 006°38'0 0.1
2016-Jul-22 17:33N 43°16' E 006°38'3 3.4
2016-Jul-22 16:33N 43°13' E 006°40'0 0.0
2016-Jul-22 14:33N 43°13' E 006°40'0 0.0
2016-Jul-22 13:28N 43°13' E 006°40'0 0.0
2016-Jul-21 13:09N 43°13' E 006°40'0 0.0
2016-Jul-21 12:33N 43°13' E 006°40'0 0.0
2016-Jul-21 11:33N 43°13' E 006°40'4 0.2
2016-Jul-20 16:29N 43°17' E 006°40'4 0.7
2016-Jul-20 11:33N 43°14' E 006°40'0 0.0
2016-Jul-20 10:27N 43°14' E 006°40'4 3.5
2016-Jul-20 09:22N 43°17' E 006°38'1 0.2
2016-Jul-20 06:32N 43°17' E 006°37'0 0.0
2016-Jul-20 05:33N 43°17' E 006°37'0 0.0
2016-Jul-20 04:30N 43°17' E 006°37'0 0.0
2016-Jul-20 03:28N 43°17' E 006°37'0 0.0
2016-Jul-19 23:33N 43°17' E 006°37'0 0.0
2016-Jul-19 22:33N 43°17' E 006°37'0 0.0
2016-Jul-19 21:33N 43°17' E 006°37'0 0.1
2016-Jul-19 18:29N 43°17' E 006°37'4 0.9
2016-Jul-19 14:21N 43°14' E 006°40'0 0.0
2016-Jul-19 13:31N 43°14' E 006°40'0 0.1
2016-Jul-19 12:31N 43°14' E 006°40'0 0.0
2016-Jul-19 11:22N 43°14' E 006°40'19 0.8
2016-Jul-18 12:23N 43°26' E 006°60'1012.2
2016-Jul-18 11:33N 43°32' E 007°10'1212.3
2016-Jul-18 10:33N 43°41' E 007°22'4 0.2
2016-Jul-17 17:13N 43°44' E 007°25'2 3.0
2016-Jul-17 16:33N 43°43' E 007°24'2 2.2
2016-Jul-17 15:31N 43°42' E 007°21'0 0.0
2016-Jul-17 14:22N 43°42' E 007°21'0 0.0
2016-Jul-17 13:28N 43°42' E 007°21'0 0.3
2016-Jul-17 12:34N 43°42' E 007°20'3 0.1
2016-Jul-15 09:03N 43°42' E 007°24'611.7
2016-Jul-15 08:33N 43°39' E 007°17'4 4.1
2016-Jul-15 07:28N 43°39' E 007°11'0 0.0
2016-Jul-15 06:28N 43°39' E 007°11'0 0.0
2016-Jul-15 05:28N 43°39' E 007°11'3 3.7
2016-Jul-15 04:33N 43°36' E 007°10'8 8.2
2016-Jul-15 03:33N 43°30' E 007°01'2 1.9
2016-Jul-15 02:22N 43°32' E 007°01'0 0.1
2016-Jul-15 01:25N 43°32' E 007°00'0 0.0
2016-Jul-15 00:25N 43°32' E 007°00'0 0.0
2016-Jul-14 23:25N 43°32' E 007°00'0 0.0
2016-Jul-14 22:28N 43°32' E 007°00'0 0.0
2016-Jul-14 21:28N 43°32' E 007°00'0 0.0
2016-Jul-14 19:31N 43°32' E 007°00'0 0.0
2016-Jul-14 18:31N 43°33' E 007°00'1 0.6
2016-Jul-14 17:33N 43°32' E 007°01'6 6.1
2016-Jul-14 16:33N 43°33' E 007°09'2 1.6
2016-Jul-14 15:31N 43°34' E 007°08'0 0.0
2016-Jul-14 14:31N 43°34' E 007°08'0 0.0
2016-Jul-14 13:31N 43°35' E 007°08'0 0.0
2016-Jul-14 12:13N 43°35' E 007°08'0 0.0
2016-Jul-14 11:31N 43°35' E 007°08'0 0.0
2016-Jul-14 10:31N 43°35' E 007°08'3 2.8
2016-Jul-14 09:33N 43°36' E 007°11'9 9.0
2016-Jul-14 08:33N 43°41' E 007°22'2 1.7
2016-Jul-14 07:22N 43°43' E 007°21'0 0.0
2016-Jul-14 06:34N 43°43' E 007°21'0 0.0
2016-Jul-14 05:34N 43°43' E 007°21'0 0.0
2016-Jul-14 04:28N 43°43' E 007°21'0 0.0
2016-Jul-14 03:04N 43°43' E 007°21'0 0.0
2016-Jul-14 01:04N 43°43' E 007°21'0 0.0
2016-Jul-14 00:28N 43°43' E 007°21'0 0.0
2016-Jul-13 22:28N 43°43' E 007°21'0 0.0
2016-Jul-13 21:16N 43°43' E 007°21'0 0.0
2016-Jul-13 20:28N 43°43' E 007°21'0 0.0
2016-Jul-13 19:28N 43°43' E 007°21'0 0.0
2016-Jul-13 18:22N 43°43' E 007°21'0 0.0
2016-Jul-13 17:34N 43°43' E 007°21'0 0.0
2016-Jul-13 16:34N 43°43' E 007°21'0 0.0
2016-Jul-13 14:28N 43°43' E 007°21'1 1.5
2016-Jul-13 13:30N 43°42' E 007°21'1 0.7
2016-Jul-13 11:28N 43°43' E 007°21'0 0.0
2016-Jul-13 10:22N 43°43' E 007°21'0 0.0
2016-Jul-13 09:25N 43°43' E 007°21'0 0.0
2016-Jul-13 08:22N 43°43' E 007°21'0 0.0
2016-Jul-13 07:16N 43°43' E 007°21'0 0.0
2016-Jul-13 06:28N 43°43' E 007°21'0 0.0
2016-Jul-13 05:22N 43°43' E 007°21'0 0.0
2016-Jul-13 04:34N 43°43' E 007°21'0 0.0
2016-Jul-13 03:28N 43°43' E 007°21'0 0.0
2016-Jul-13 02:34N 43°43' E 007°21'0 0.1
2016-Jul-13 01:33N 43°43' E 007°21'5 4.9
2016-Jul-13 00:29N 43°43' E 007°28'4611.2
2016-Jul-12 20:22N 43°59' E 008°29'911.3
2016-Jul-12 19:33N 44°05' E 008°39'  
Track history (hours):
 
Tides and Currents Weather Stations Pressure Air Temp Water Temp Dewpoint Dewpoint Depression Visibility Wind Speed Wind Dir Waves Ship Positions

Hana

Last reported at 2016-Jul-22 19:10 UTC. Time now 2016-Jul-29 02:08 UTC.
Position N 43°16' E 006°38'.

Length 43 m; draft 2.7 m.

Type: Pleasure craft. MMSI: 235065022.

Date/timePositionNaut miles runAvg speedWind from/ knotsBaromVisibWave heightAir tempDewpointWater temp
2016-Jul-22 19:10N 43°16' E 006°38'0 0.0
2016-Jul-22 18:31N 43°16' E 006°38'0 0.1
2016-Jul-22 17:33N 43°16' E 006°38'3 3.4
2016-Jul-22 16:33N 43°13' E 006°40'0 0.0
2016-Jul-22 14:33N 43°13' E 006°40'0 0.0
2016-Jul-22 13:28N 43°13' E 006°40'0 0.0
2016-Jul-21 13:09N 43°13' E 006°40'0 0.0
2016-Jul-21 12:33N 43°13' E 006°40'0 0.0
2016-Jul-21 11:33N 43°13' E 006°40'4 0.2
2016-Jul-20 16:29N 43°17' E 006°40'4 0.7
2016-Jul-20 11:33N 43°14' E 006°40'0 0.0
2016-Jul-20 10:27N 43°14' E 006°40'4 3.5
2016-Jul-20 09:22N 43°17' E 006°38'1 0.2
2016-Jul-20 06:32N 43°17' E 006°37'0 0.0
2016-Jul-20 05:33N 43°17' E 006°37'0 0.0
2016-Jul-20 04:30N 43°17' E 006°37'0 0.0
2016-Jul-20 03:28N 43°17' E 006°37'0 0.0
2016-Jul-19 23:33N 43°17' E 006°37'0 0.0
2016-Jul-19 22:33N 43°17' E 006°37'0 0.0
2016-Jul-19 21:33N 43°17' E 006°37'0 0.1
2016-Jul-19 18:29N 43°17' E 006°37'4 0.9
2016-Jul-19 14:21N 43°14' E 006°40'0 0.0
2016-Jul-19 13:31N 43°14' E 006°40'0 0.1
2016-Jul-19 12:31N 43°14' E 006°40'0 0.0
2016-Jul-19 11:22N 43°14' E 006°40'19 0.8
2016-Jul-18 12:23N 43°26' E 006°60'1012.2
2016-Jul-18 11:33N 43°32' E 007°10'1212.3
2016-Jul-18 10:33N 43°41' E 007°22'4 0.2
2016-Jul-17 17:13N 43°44' E 007°25'2 3.0
2016-Jul-17 16:33N 43°43' E 007°24'2 2.2
2016-Jul-17 15:31N 43°42' E 007°21'0 0.0
2016-Jul-17 14:22N 43°42' E 007°21'0 0.0
2016-Jul-17 13:28N 43°42' E 007°21'0 0.3
2016-Jul-17 12:34N 43°42' E 007°20'3 0.1
2016-Jul-15 09:03N 43°42' E 007°24'611.7
2016-Jul-15 08:33N 43°39' E 007°17'4 4.1
2016-Jul-15 07:28N 43°39' E 007°11'0 0.0
2016-Jul-15 06:28N 43°39' E 007°11'0 0.0
2016-Jul-15 05:28N 43°39' E 007°11'3 3.7
2016-Jul-15 04:33N 43°36' E 007°10'8 8.2
2016-Jul-15 03:33N 43°30' E 007°01'2 1.9
2016-Jul-15 02:22N 43°32' E 007°01'0 0.1
2016-Jul-15 01:25N 43°32' E 007°00'0 0.0
2016-Jul-15 00:25N 43°32' E 007°00'0 0.0
2016-Jul-14 23:25N 43°32' E 007°00'0 0.0
2016-Jul-14 22:28N 43°32' E 007°00'0 0.0
2016-Jul-14 21:28N 43°32' E 007°00'0 0.0
2016-Jul-14 19:31N 43°32' E 007°00'0 0.0
2016-Jul-14 18:31N 43°33' E 007°00'1 0.6
2016-Jul-14 17:33N 43°32' E 007°01'6 6.1
2016-Jul-14 16:33N 43°33' E 007°09'2 1.6
2016-Jul-14 15:31N 43°34' E 007°08'0 0.0
2016-Jul-14 14:31N 43°34' E 007°08'0 0.0
2016-Jul-14 13:31N 43°35' E 007°08'0 0.0
2016-Jul-14 12:13N 43°35' E 007°08'0 0.0
2016-Jul-14 11:31N 43°35' E 007°08'0 0.0
2016-Jul-14 10:31N 43°35' E 007°08'3 2.8
2016-Jul-14 09:33N 43°36' E 007°11'9 9.0
2016-Jul-14 08:33N 43°41' E 007°22'2 1.7
2016-Jul-14 07:22N 43°43' E 007°21'0 0.0
2016-Jul-14 06:34N 43°43' E 007°21'0 0.0
2016-Jul-14 05:34N 43°43' E 007°21'0 0.0
2016-Jul-14 04:28N 43°43' E 007°21'0 0.0
2016-Jul-14 03:04N 43°43' E 007°21'0 0.0
2016-Jul-14 01:04N 43°43' E 007°21'0 0.0
2016-Jul-14 00:28N 43°43' E 007°21'0 0.0
2016-Jul-13 22:28N 43°43' E 007°21'0 0.0
2016-Jul-13 21:16N 43°43' E 007°21'0 0.0
2016-Jul-13 20:28N 43°43' E 007°21'0 0.0
2016-Jul-13 19:28N 43°43' E 007°21'0 0.0
2016-Jul-13 18:22N 43°43' E 007°21'0 0.0
2016-Jul-13 17:34N 43°43' E 007°21'0 0.0
2016-Jul-13 16:34N 43°43' E 007°21'0 0.0
2016-Jul-13 14:28N 43°43' E 007°21'1 1.5
2016-Jul-13 13:30N 43°42' E 007°21'1 0.7
2016-Jul-13 11:28N 43°43' E 007°21'0 0.0
2016-Jul-13 10:22N 43°43' E 007°21'0 0.0
2016-Jul-13 09:25N 43°43' E 007°21'0 0.0
2016-Jul-13 08:22N 43°43' E 007°21'0 0.0
2016-Jul-13 07:16N 43°43' E 007°21'0 0.0
2016-Jul-13 06:28N 43°43' E 007°21'0 0.0
2016-Jul-13 05:22N 43°43' E 007°21'0 0.0
2016-Jul-13 04:34N 43°43' E 007°21'0 0.0
2016-Jul-13 03:28N 43°43' E 007°21'0 0.0
2016-Jul-13 02:34N 43°43' E 007°21'0 0.1
2016-Jul-13 01:33N 43°43' E 007°21'5 4.9
2016-Jul-13 00:29N 43°43' E 007°28'4611.2
2016-Jul-12 20:22N 43°59' E 008°29'911.3
2016-Jul-12 19:33N 44°05' E 008°39'  

Dump ship's entire track history